Time,TemperatureF,DewpointF,PressureIn,WindDirection,WindDirectionDegrees,WindSpeedMPH,WindSpeedGustMPH,Humidity,HourlyPrecipIn,Conditions,Clouds,dailyrainin,SolarRadiationWatts/m^2,SoftwareType,DateUTC
2013-06-06 00:04:00,63.5,59.2,30.08,West,264,0.0,3.0,86,0.00,CLR,,0.00,0.0,WeatherDisplay:10.37,2013-06-05 22:04:00,
2013-06-06 00:09:00,63.6,59.3,30.08,WSW,254,4.0,4.0,86,0.00,CLR,,0.00,0.0,WeatherDisplay:10.37,2013-06-05 22:09:00,
2013-06-06 00:14:00,63.6,59.7,30.08,WNW,293,3.5,3.5,87,0.00,CLR,,0.00,0.0,WeatherDisplay:10.37,2013-06-05 22:14:00,
2013-06-06 00:19:00,63.6,59.7,30.08,WNW,285,0.0,3.0,87,0.00,CLR,,0.00,0.0,WeatherDisplay:10.37,2013-06-05 22:19:00,
2013-06-06 00:24:00,63.5,59.6,30.08,WNW,302,0.0,0.0,87,0.00,CLR,,0.00,0.0,WeatherDisplay:10.37,2013-06-05 22:24:00,
2013-06-06 00:29:00,63.4,59.5,30.08,NW,321,2.3,2.3,87,0.00,CLR,,0.00,0.0,WeatherDisplay:10.37,2013-06-05 22:29:00,
2013-06-06 00:34:00,63.3,59.4,30.08,NW,326,1.0,2.0,87,0.00,CLR,,0.00,0.0,WeatherDisplay:10.37,2013-06-05 22:34:00,
2013-06-06 00:39:00,63.3,59.4,30.08,NNW,331,1.2,1.2,87,0.00,CLR,,0.00,0.0,WeatherDisplay:10.37,2013-06-05 22:39:00,
2013-06-06 00:44:00,63.3,59.4,30.08,NNW,331,1.2,1.2,87,0.00,CLR,,0.00,0.0,WeatherDisplay:10.37,2013-06-05 22:44:00,
2013-06-06 00:49:00,63.3,59.4,30.08,NNW,338,2.3,2.3,87,0.00,CLR,,0.00,0.0,WeatherDisplay:10.37,2013-06-05 22:49:00,
2013-06-06 00:54:00,63.3,59.7,30.08,NNW,346,0.0,0.0,88,0.00,CLR,,0.00,0.0,WeatherDisplay:10.37,2013-06-05 22:54:00,
2013-06-06 00:59:00,63.3,59.7,30.08,NNW,346,0.0,0.0,88,0.00,CLR,,0.00,0.0,WeatherDisplay:10.37,2013-06-05 22:59:00,
2013-06-06 01:04:00,63.2,59.3,30.07,NNW,344,0.0,1.0,87,0.00,BKN,,0.00,0.0,WeatherDisplay:10.37,2013-06-05 23:04:00,
2013-06-06 01:09:00,62.7,58.8,30.07,NE,43,2.3,2.3,87,0.00,BKN,,0.00,0.0,WeatherDisplay:10.37,2013-06-05 23:09:00,
2013-06-06 01:14:00,62.4,58.5,30.07,East,82,4.6,4.6,87,0.00,BKN,,0.00,0.0,WeatherDisplay:10.37,2013-06-05 23:14:00,
2013-06-06 01:19:00,62.3,58.7,30.07,SSW,213,1.2,1.2,88,0.00,BKN,,0.00,0.0,WeatherDisplay:10.37,2013-06-05 23:19:00,
2013-06-06 01:25:00,62.3,58.7,30.07,WNW,293,1.2,1.2,88,0.00,BKN,,0.00,0.0,WeatherDisplay:10.37,2013-06-05 23:25:00,
2013-06-06 01:30:00,62.2,58.6,30.07,SW,232,3.5,3.5,88,0.00,BKN,,0.00,0.0,WeatherDisplay:10.37,2013-06-05 23:30:00,
2013-06-06 01:35:00,62.0,58.4,30.07,SW,230,3.5,3.5,88,0.00,BKN,,0.00,0.0,WeatherDisplay:10.37,2013-06-05 23:35:00,
2013-06-06 01:40:00,61.8,58.2,30.07,WSW,242,2.3,2.3,88,0.00,BKN,,0.00,0.0,WeatherDisplay:10.37,2013-06-05 23:40:00,
2013-06-06 01:45:00,61.6,58.0,30.06,WSW,251,3.5,3.5,88,0.00,BKN,,0.00,0.0,WeatherDisplay:10.37,2013-06-05 23:45:00,
2013-06-06 01:50:00,61.5,57.9,30.06,West,271,3.5,3.5,88,0.00,BKN,,0.00,0.0,WeatherDisplay:10.37,2013-06-05 23:50:00,
2013-06-06 01:55:00,61.4,57.8,30.07,SSW,212,2.3,2.3,88,0.00,BKN,,0.00,0.0,WeatherDisplay:10.37,2013-06-05 23:55:00,
2013-06-06 02:00:00,61.4,58.1,30.07,North,349,3.5,3.5,89,0.00,BKN,,0.00,0.0,WeatherDisplay:10.37,2013-06-06 00:00:00,
2013-06-06 02:05:00,61.4,58.1,30.06,SW,232,1.2,1.2,89,0.00,FEW,,0.00,0.0,WeatherDisplay:10.37,2013-06-06 00:05:00,
2013-06-06 02:10:00,61.4,58.1,30.06,SSW,198,1.0,3.0,89,0.00,FEW,,0.00,0.0,WeatherDisplay:10.37,2013-06-06 00:10:00,
2013-06-06 02:15:00,61.3,58.0,30.06,NNE,19,3.5,3.5,89,0.00,FEW,,0.00,0.0,WeatherDisplay:10.37,2013-06-06 00:15:00,
2013-06-06 02:20:00,61.3,57.7,30.06,NE,51,3.5,3.5,88,0.00,FEW,,0.00,0.0,WeatherDisplay:10.37,2013-06-06 00:20:00,
2013-06-06 02:25:00,61.3,58.0,30.06,SW,226,3.5,3.5,89,0.00,FEW,,0.00,0.0,WeatherDisplay:10.37,2013-06-06 00:25:00,
2013-06-06 02:30:00,61.2,57.6,30.05,NE,47,3.5,3.5,88,0.00,FEW,,0.00,0.0,WeatherDisplay:10.37,2013-06-06 00:30:00,
2013-06-06 02:35:00,61.2,57.6,30.05,SSE,164,2.3,2.3,88,0.00,FEW,,0.00,0.0,WeatherDisplay:10.37,2013-06-06 00:35:00,
2013-06-06 02:40:00,61.1,57.5,30.05,ENE,65,2.3,2.3,88,0.00,FEW,,0.00,0.0,WeatherDisplay:10.37,2013-06-06 00:40:00,
2013-06-06 02:45:00,61.1,57.8,30.05,ENE,61,1.2,1.2,89,0.00,FEW,,0.00,0.0,WeatherDisplay:10.37,2013-06-06 00:45:00,
2013-06-06 02:50:00,61.1,57.8,30.06,ENE,60,0.0,0.0,89,0.00,FEW,,0.00,0.0,WeatherDisplay:10.37,2013-06-06 00:50:00,
2013-06-06 02:55:00,61.2,57.9,30.06,East,100,0.0,0.0,89,0.00,FEW,,0.00,0.0,WeatherDisplay:10.37,2013-06-06 00:55:00,
2013-06-06 03:00:00,61.2,57.9,30.06,NE,53,0.0,0.0,89,0.00,FEW,,0.00,0.0,WeatherDisplay:10.37,2013-06-06 01:00:00,
2013-06-06 03:05:00,61.3,58.0,30.06,North,5,1.2,1.2,89,0.00,FEW,,0.00,0.0,WeatherDisplay:10.37,2013-06-06 01:05:00,
2013-06-06 03:10:00,61.3,58.0,30.06,NNW,348,1.2,1.2,89,0.00,FEW,,0.00,0.0,WeatherDisplay:10.37,2013-06-06 01:10:00,
2013-06-06 03:15:00,61.1,57.5,30.05,NNE,30,3.5,3.5,88,0.00,FEW,,0.00,0.0,WeatherDisplay:10.37,2013-06-06 01:15:00,
2013-06-06 03:20:00,61.2,57.9,30.05,NNE,22,1.2,0.0,89,0.00,FEW,,0.00,0.0,WeatherDisplay:10.37,2013-06-06 01:20:00,
2013-06-06 03:25:00,61.2,57.6,30.05,NNE,22,0.0,0.0,88,0.00,FEW,,0.00,0.0,WeatherDisplay:10.37,2013-06-06 01:25:00,
2013-06-06 03:30:00,61.2,57.6,30.05,ENE,67,1.2,1.2,88,0.00,FEW,,0.00,0.0,WeatherDisplay:10.37,2013-06-06 01:30:00,
2013-06-06 03:35:00,61.1,57.5,30.05,ESE,102,2.3,2.3,88,0.00,FEW,,0.00,0.0,WeatherDisplay:10.37,2013-06-06 01:35:00,
2013-06-06 03:40:00,61.3,57.7,30.05,ESE,102,2.3,2.3,88,0.00,FEW,,0.00,0.0,WeatherDisplay:10.37,2013-06-06 01:40:00,
2013-06-06 03:45:00,61.4,57.8,30.05,ESE,111,2.3,2.3,88,0.00,FEW,,0.00,0.0,WeatherDisplay:10.37,2013-06-06 01:45:00,
2013-06-06 03:50:00,61.3,57.7,30.05,ESE,113,1.2,1.2,88,0.00,FEW,,0.00,0.0,WeatherDisplay:10.37,2013-06-06 01:50:00,
2013-06-06 03:55:00,61.2,57.6,30.05,ESE,105,0.0,0.0,88,0.00,FEW,,0.00,0.0,WeatherDisplay:10.37,2013-06-06 01:55:00,
2013-06-06 04:00:00,61.1,57.5,30.05,NE,40,2.0,2.0,88,0.00,FEW,,0.00,0.0,WeatherDisplay:10.37,2013-06-06 02:00:00,
2013-06-06 04:05:00,61.1,57.5,30.05,NNE,22,2.3,0.0,88,0.00,FEW,,0.00,0.0,WeatherDisplay:10.37,2013-06-06 02:05:00,
2013-06-06 04:10:00,61.0,57.4,30.05,NNE,22,0.0,0.0,88,0.00,FEW,,0.00,0.0,WeatherDisplay:10.37,2013-06-06 02:10:00,
2013-06-06 04:15:00,60.9,57.3,30.05,NNE,22,0.0,0.0,88,0.00,FEW,,0.00,0.0,WeatherDisplay:10.37,2013-06-06 02:15:00,
2013-06-06 04:20:00,60.8,57.2,30.05,NNE,22,0.0,0.0,88,0.00,FEW,,0.00,0.0,WeatherDisplay:10.37,2013-06-06 02:20:00,
2013-06-06 04:25:00,60.7,57.1,30.05,NE,50,0.0,0.0,88,0.00,FEW,,0.00,0.0,WeatherDisplay:10.37,2013-06-06 02:25:00,
2013-06-06 04:30:00,60.6,57.0,30.05,SSE,157,1.2,0.0,88,0.00,FEW,,0.00,0.0,WeatherDisplay:10.37,2013-06-06 02:30:00,
2013-06-06 04:35:00,60.5,56.9,30.05,SW,233,1.2,1.2,88,0.00,FEW,,0.00,0.0,WeatherDisplay:10.37,2013-06-06 02:35:00,
2013-06-06 04:40:00,60.4,56.8,30.05,West,275,0.0,0.1,88,0.00,FEW,,0.00,0.0,WeatherDisplay:10.37,2013-06-06 02:40:00,
2013-06-06 04:45:00,60.4,56.8,30.05,South,190,1.2,1.2,88,0.00,FEW,,0.00,0.0,WeatherDisplay:10.37,2013-06-06 02:45:00,
2013-06-06 04:50:00,60.3,57.0,30.05,ESE,113,1.2,1.2,89,0.00,FEW,,0.00,0.0,WeatherDisplay:10.37,2013-06-06 02:50:00,
2013-06-06 04:55:00,60.2,56.9,30.05,SSW,192,1.2,0.0,89,0.00,FEW,,0.00,0.0,WeatherDisplay:10.37,2013-06-06 02:55:00,
2013-06-06 05:00:00,60.1,56.8,30.05,ENE,75,1.2,1.2,89,0.00,FEW,,0.00,0.0,WeatherDisplay:10.37,2013-06-06 03:00:00,
2013-06-06 05:05:00,60.0,56.7,30.05,ENE,72,1.2,0.0,89,0.00,FEW,,0.00,0.0,WeatherDisplay:10.37,2013-06-06 03:05:00,
2013-06-06 05:10:00,59.8,56.6,30.05,ENE,78,1.2,0.0,89,0.00,FEW,,0.00,0.0,WeatherDisplay:10.37,2013-06-06 03:10:00,
2013-06-06 05:15:00,59.7,56.5,30.05,SSW,201,2.3,2.3,89,0.00,FEW,,0.00,0.0,WeatherDisplay:10.37,2013-06-06 03:15:00,
2013-06-06 05:20:00,59.6,56.4,30.06,ENE,61,3.5,3.5,89,0.00,FEW,,0.00,0.0,WeatherDisplay:10.37,2013-06-06 03:20:00,
2013-06-06 05:25:00,59.4,56.2,30.06,East,80,1.2,1.2,89,0.00,FEW,,0.00,0.0,WeatherDisplay:10.37,2013-06-06 03:25:00,
2013-06-06 05:30:00,59.4,56.2,30.06,East,88,3.5,3.5,89,0.00,FEW,,0.00,0.0,WeatherDisplay:10.37,2013-06-06 03:30:00,
2013-06-06 05:35:00,59.3,56.1,30.06,ESE,107,0.0,0.1,89,0.00,FEW,,0.00,7.0,WeatherDisplay:10.37,2013-06-06 03:35:00,
2013-06-06 05:40:00,59.2,56.3,30.06,West,260,1.0,1.0,90,0.00,FEW,,0.00,11.0,WeatherDisplay:10.37,2013-06-06 03:40:00,
2013-06-06 05:45:00,59.2,56.3,30.06,WSW,249,1.2,1.2,90,0.00,FEW,,0.00,16.0,WeatherDisplay:10.37,2013-06-06 03:45:00,
2013-06-06 05:50:00,59.2,56.3,30.06,SSE,157,1.2,1.2,90,0.00,FEW,,0.00,18.0,WeatherDisplay:10.37,2013-06-06 03:50:00,
2013-06-06 05:55:00,59.3,56.4,30.06,South,184,1.2,0.0,90,0.00,FEW,,0.00,30.0,WeatherDisplay:10.37,2013-06-06 03:55:00,
2013-06-06 06:00:00,59.3,56.4,30.06,South,184,1.2,1.2,90,0.00,FEW,,0.00,33.0,WeatherDisplay:10.37,2013-06-06 04:00:00,
2013-06-06 06:01:00,59.3,56.4,30.06,South,184,1.2,1.2,90,0.00,FEW,,0.00,37.0,WeatherDisplay:10.37,2013-06-06 04:01:00,
2013-06-06 06:02:00,59.3,56.4,30.07,South,184,0.0,0.0,90,0.00,FEW,,0.00,40.0,WeatherDisplay:10.37,2013-06-06 04:02:00,
2013-06-06 06:07:00,59.4,56.5,30.07,South,184,0.0,0.0,90,0.00,FEW,,0.00,53.0,WeatherDisplay:10.37,2013-06-06 04:07:00,
2013-06-06 06:12:00,59.4,56.5,30.07,South,183,0.0,0.0,90,0.00,FEW,,0.00,70.0,WeatherDisplay:10.37,2013-06-06 04:12:00,
2013-06-06 06:17:00,59.8,56.9,30.07,South,183,0.0,0.0,90,0.00,FEW,,0.00,70.0,WeatherDisplay:10.37,2013-06-06 04:17:00,
2013-06-06 06:22:00,60.1,57.2,30.07,South,183,0.0,0.0,90,0.00,FEW,,0.00,63.0,WeatherDisplay:10.37,2013-06-06 04:22:00,
2013-06-06 06:27:00,60.3,57.0,30.07,South,183,0.0,0.0,89,0.00,FEW,,0.00,91.0,WeatherDisplay:10.37,2013-06-06 04:27:00,
2013-06-06 06:32:00,60.6,57.3,30.07,South,183,0.0,0.0,89,0.00,FEW,,0.00,97.0,WeatherDisplay:10.37,2013-06-06 04:32:00,
2013-06-06 06:37:00,60.8,57.5,30.07,South,183,0.0,0.0,89,0.00,FEW,,0.00,77.0,WeatherDisplay:10.37,2013-06-06 04:37:00,
2013-06-06 06:42:00,60.9,57.6,30.07,SW,224,1.2,1.2,89,0.00,FEW,,0.00,100.0,WeatherDisplay:10.37,2013-06-06 04:42:00,
2013-06-06 06:47:00,61.0,57.4,30.08,SW,224,0.0,0.0,88,0.00,FEW,,0.00,132.0,WeatherDisplay:10.37,2013-06-06 04:47:00,
2013-06-06 06:52:00,61.3,58.0,30.08,West,265,1.2,1.2,89,0.00,FEW,,0.00,134.0,WeatherDisplay:10.37,2013-06-06 04:52:00,
2013-06-06 06:57:00,61.6,58.0,30.08,WNW,296,0.0,0.0,88,0.00,FEW,,0.00,148.0,WeatherDisplay:10.37,2013-06-06 04:57:00,
2013-06-06 07:02:00,61.9,58.3,30.08,SW,223,0.0,0.0,88,0.00,FEW,,0.00,188.0,WeatherDisplay:10.37,2013-06-06 05:02:00,
2013-06-06 07:07:00,62.3,58.7,30.08,SW,224,0.0,0.0,88,0.00,FEW,,0.00,220.0,WeatherDisplay:10.37,2013-06-06 05:07:00,
2013-06-06 07:12:00,62.9,59.3,30.08,East,94,1.2,1.2,88,0.00,FEW,,0.00,253.0,WeatherDisplay:10.37,2013-06-06 05:12:00,
2013-06-06 07:17:00,63.3,59.4,30.08,East,96,0.0,0.0,87,0.00,FEW,,0.00,269.0,WeatherDisplay:10.37,2013-06-06 05:17:00,
2013-06-06 07:22:00,63.7,59.4,30.08,SSE,152,1.2,1.2,86,0.00,FEW,,0.00,260.0,WeatherDisplay:10.37,2013-06-06 05:22:00,
2013-06-06 07:27:00,64.2,59.9,30.08,SSE,152,0.0,0.0,86,0.00,FEW,,0.00,278.0,WeatherDisplay:10.37,2013-06-06 05:27:00,
2013-06-06 07:32:00,64.5,59.9,30.08,ESE,115,2.3,2.3,85,0.00,FEW,,0.00,313.0,WeatherDisplay:10.37,2013-06-06 05:32:00,
2013-06-06 07:37:00,64.6,60.0,30.08,East,100,2.3,2.3,85,0.00,FEW,,0.00,248.0,WeatherDisplay:10.37,2013-06-06 05:37:00,
2013-06-06 07:42:00,64.3,59.4,30.08,ESE,106,3.5,3.5,84,0.00,FEW,,0.00,79.0,WeatherDisplay:10.37,2013-06-06 05:42:00,
2013-06-06 07:47:00,63.9,59.0,30.08,ESE,106,3.5,3.5,84,0.00,FEW,,0.00,355.0,WeatherDisplay:10.37,2013-06-06 05:47:00,
2013-06-06 07:52:00,63.9,59.0,30.08,ESE,107,3.5,3.5,84,0.00,BKN,,0.00,357.0,WeatherDisplay:10.37,2013-06-06 05:52:00,
2013-06-06 07:57:00,63.9,59.3,30.08,ESE,109,3.5,3.5,85,0.00,SCT,,0.00,394.0,WeatherDisplay:10.37,2013-06-06 05:57:00,
2013-06-06 08:02:00,64.1,59.2,30.08,East,82,3.5,3.5,84,0.00,FEW,,0.00,392.0,WeatherDisplay:10.37,2013-06-06 06:02:00,
2013-06-06 08:07:00,64.2,59.3,30.08,East,93,4.6,4.6,84,0.00,FEW,,0.00,445.0,WeatherDisplay:10.37,2013-06-06 06:07:00,
2013-06-06 08:12:00,64.4,59.5,30.08,East,93,4.6,4.6,84,0.00,FEW,,0.00,473.0,WeatherDisplay:10.37,2013-06-06 06:12:00,
2013-06-06 08:17:00,64.5,59.6,30.08,ENE,74,4.6,4.6,84,0.00,FEW,,0.00,179.0,WeatherDisplay:10.37,2013-06-06 06:17:00,
2013-06-06 08:22:00,64.8,59.9,30.08,ENE,77,3.5,3.5,84,0.00,FEW,,0.00,424.0,WeatherDisplay:10.37,2013-06-06 06:22:00,
2013-06-06 08:27:00,65.0,60.0,30.08,NE,55,3.5,3.5,84,0.00,FEW,,0.00,269.0,WeatherDisplay:10.37,2013-06-06 06:27:00,
2013-06-06 08:32:00,65.0,59.7,30.08,ESE,109,4.0,4.0,83,0.00,FEW,,0.00,436.0,WeatherDisplay:10.37,2013-06-06 06:32:00,
2013-06-06 08:37:00,65.2,59.9,30.08,East,80,4.6,4.6,83,0.00,FEW,,0.00,483.0,WeatherDisplay:10.37,2013-06-06 06:37:00,
2013-06-06 08:42:00,65.2,59.9,30.08,East,94,3.5,3.5,83,0.00,FEW,,0.00,371.0,WeatherDisplay:10.37,2013-06-06 06:42:00,
2013-06-06 08:47:00,65.5,59.9,30.08,ENE,63,4.6,4.6,82,0.00,FEW,,0.00,517.0,WeatherDisplay:10.37,2013-06-06 06:47:00,
2013-06-06 08:52:00,65.7,60.1,30.08,SE,126,5.8,5.8,82,0.00,FEW,,0.00,529.0,WeatherDisplay:10.37,2013-06-06 06:52:00,
2013-06-06 08:57:00,65.9,59.9,30.08,ESE,106,2.3,2.3,81,0.00,FEW,,0.00,536.0,WeatherDisplay:10.37,2013-06-06 06:57:00,
2013-06-06 09:02:00,66.4,60.4,30.08,East,98,2.0,2.0,81,0.00,FEW,,0.00,557.0,WeatherDisplay:10.37,2013-06-06 07:02:00,
2013-06-06 09:07:00,66.8,60.4,30.08,East,90,2.3,2.3,80,0.00,FEW,,0.00,561.0,WeatherDisplay:10.37,2013-06-06 07:07:00,
2013-06-06 09:12:00,67.2,60.5,30.08,West,267,2.3,2.3,79,0.00,FEW,,0.00,577.0,WeatherDisplay:10.37,2013-06-06 07:12:00,
2013-06-06 09:17:00,67.9,60.8,30.08,WNW,296,2.3,2.3,78,0.00,FEW,,0.00,601.0,WeatherDisplay:10.37,2013-06-06 07:17:00,
2013-06-06 09:22:00,68.6,60.7,30.07,East,88,2.3,2.3,76,0.00,FEW,,0.00,606.0,WeatherDisplay:10.37,2013-06-06 07:22:00,
2013-06-06 09:27:00,68.8,60.2,30.08,South,178,3.0,3.0,74,0.00,FEW,,0.00,615.0,WeatherDisplay:10.37,2013-06-06 07:27:00,
2013-06-06 09:32:00,69.0,60.4,30.08,WNW,290,3.5,3.5,74,0.00,FEW,,0.00,636.0,WeatherDisplay:10.37,2013-06-06 07:32:00,
2013-06-06 09:37:00,68.6,59.6,30.08,SW,225,5.8,5.8,73,0.00,FEW,,0.00,649.0,WeatherDisplay:10.37,2013-06-06 07:37:00,
2013-06-06 09:42:00,67.7,59.5,30.08,NE,55,8.1,8.1,75,0.00,FEW,,0.00,661.0,WeatherDisplay:10.37,2013-06-06 07:42:00,
2013-06-06 09:47:00,67.5,59.7,30.08,West,261,7.0,7.0,76,0.00,FEW,,0.00,675.0,WeatherDisplay:10.37,2013-06-06 07:47:00,
2013-06-06 09:52:00,67.2,59.7,30.08,West,275,7.0,7.0,77,0.00,FEW,,0.00,675.0,WeatherDisplay:10.37,2013-06-06 07:52:00,
2013-06-06 09:57:00,67.3,60.2,30.08,WSW,241,7.0,7.0,78,0.00,FEW,,0.00,693.0,WeatherDisplay:10.37,2013-06-06 07:57:00,
2013-06-06 10:02:00,67.0,59.9,30.08,West,259,8.1,8.1,78,0.00,FEW,,0.00,700.0,WeatherDisplay:10.37,2013-06-06 08:02:00,
2013-06-06 10:07:00,66.9,59.8,30.08,WSW,257,6.0,6.0,78,0.00,FEW,,0.00,712.0,WeatherDisplay:10.37,2013-06-06 08:07:00,
2013-06-06 10:12:00,66.9,60.2,30.08,WSW,239,4.6,4.6,79,0.00,FEW,,0.00,719.0,WeatherDisplay:10.37,2013-06-06 08:12:00,
2013-06-06 10:17:00,67.3,60.6,30.08,South,190,4.6,4.6,79,0.00,FEW,,0.00,729.0,WeatherDisplay:10.37,2013-06-06 08:17:00,
2013-06-06 10:22:00,67.7,60.6,30.08,WSW,244,6.9,6.9,78,0.00,FEW,,0.00,745.0,WeatherDisplay:10.37,2013-06-06 08:22:00,
2013-06-06 10:27:00,67.6,60.5,30.08,West,273,5.8,5.8,78,0.00,FEW,,0.00,751.0,WeatherDisplay:10.37,2013-06-06 08:27:00,
2013-06-06 10:32:00,68.3,61.2,30.08,WSW,240,5.8,5.8,78,0.00,FEW,,0.00,766.0,WeatherDisplay:10.37,2013-06-06 08:32:00,
2013-06-06 10:37:00,68.3,60.8,30.07,NW,310,5.8,5.8,77,0.00,FEW,,0.00,772.0,WeatherDisplay:10.37,2013-06-06 08:37:00,
2013-06-06 10:42:00,68.1,60.6,30.07,WSW,257,6.9,6.9,77,0.00,FEW,,0.00,780.0,WeatherDisplay:10.37,2013-06-06 08:42:00,
2013-06-06 10:47:00,68.5,60.6,30.07,SW,220,8.1,8.1,76,0.00,FEW,,0.00,795.0,WeatherDisplay:10.37,2013-06-06 08:47:00,
2013-06-06 10:52:00,68.8,60.9,30.07,SSW,192,4.6,4.6,76,0.00,FEW,,0.00,807.0,WeatherDisplay:10.37,2013-06-06 08:52:00,
2013-06-06 10:57:00,69.3,61.0,30.07,SW,226,4.0,4.0,75,0.00,FEW,,0.00,810.0,WeatherDisplay:10.37,2013-06-06 08:57:00,
2013-06-06 11:02:00,69.8,61.5,30.07,WNW,290,4.6,4.6,75,0.00,FEW,,0.00,816.0,WeatherDisplay:10.37,2013-06-06 09:02:00,
2013-06-06 11:07:00,69.9,60.8,30.07,SSW,194,10.0,10.0,73,0.00,FEW,,0.00,831.0,WeatherDisplay:10.37,2013-06-06 09:07:00,
2013-06-06 11:12:00,69.9,61.2,30.07,NNW,338,4.0,4.0,74,0.00,FEW,,0.00,837.0,WeatherDisplay:10.37,2013-06-06 09:12:00,
2013-06-06 11:18:00,69.6,60.2,30.06,WSW,245,10.4,10.4,72,0.00,FEW,,0.00,846.0,WeatherDisplay:10.37,2013-06-06 09:18:00,
2013-06-06 11:23:00,69.2,60.6,30.06,WSW,253,5.8,5.8,74,0.00,FEW,,0.00,835.0,WeatherDisplay:10.37,2013-06-06 09:23:00,
2013-06-06 11:27:00,69.6,60.9,30.06,SW,234,6.9,6.9,74,0.00,FEW,,0.00,849.0,WeatherDisplay:10.37,2013-06-06 09:27:00,
2013-06-06 11:33:00,69.8,60.8,30.06,WSW,238,8.0,8.0,73,0.00,FEW,,0.00,851.0,WeatherDisplay:10.37,2013-06-06 09:33:00,
2013-06-06 11:38:00,70.4,60.9,30.06,SW,228,8.1,8.1,72,0.00,FEW,,0.00,851.0,WeatherDisplay:10.37,2013-06-06 09:38:00,
2013-06-06 11:43:00,70.3,60.8,30.06,West,276,9.2,9.2,72,0.00,FEW,,0.00,867.0,WeatherDisplay:10.37,2013-06-06 09:43:00,
2013-06-06 11:48:00,70.7,60.8,30.07,WNW,294,11.5,11.5,71,0.00,FEW,,0.00,867.0,WeatherDisplay:10.37,2013-06-06 09:48:00,
2013-06-06 11:53:00,70.6,61.5,30.07,WSW,254,9.0,9.0,73,0.00,FEW,,0.00,874.0,WeatherDisplay:10.37,2013-06-06 09:53:00,
2013-06-06 11:58:00,69.7,60.7,30.07,SW,236,10.4,10.4,73,0.00,FEW,,0.00,882.0,WeatherDisplay:10.37,2013-06-06 09:58:00,
2013-06-06 12:03:00,69.2,60.6,30.06,North,9,8.1,8.1,74,0.00,FEW,,0.00,888.0,WeatherDisplay:10.37,2013-06-06 10:03:00,
2013-06-06 12:08:00,69.5,60.8,30.06,WSW,248,6.9,6.9,74,0.00,FEW,,0.00,888.0,WeatherDisplay:10.37,2013-06-06 10:08:00,
2013-06-06 12:13:00,70.1,61.4,30.06,WSW,254,9.2,9.2,74,0.00,FEW,,0.00,896.0,WeatherDisplay:10.37,2013-06-06 10:13:00,
2013-06-06 12:18:00,70.0,60.9,30.06,SW,214,13.8,13.8,73,0.00,FEW,,0.00,895.0,WeatherDisplay:10.37,2013-06-06 10:18:00,
2013-06-06 12:23:00,69.3,60.7,30.06,SW,229,13.8,13.8,74,0.00,FEW,,0.00,895.0,WeatherDisplay:10.37,2013-06-06 10:23:00,
2013-06-06 12:28:00,68.9,60.3,30.06,WSW,249,12.0,12.0,74,0.00,FEW,,0.00,900.0,WeatherDisplay:10.37,2013-06-06 10:28:00,
2013-06-06 12:33:00,69.1,60.8,30.06,WSW,238,10.0,10.0,75,0.00,FEW,,0.00,905.0,WeatherDisplay:10.37,2013-06-06 10:33:00,
2013-06-06 12:38:00,69.8,61.1,30.06,WSW,248,11.5,11.5,74,0.00,FEW,,0.00,905.0,WeatherDisplay:10.37,2013-06-06 10:38:00,
2013-06-06 12:43:00,70.0,60.6,30.05,WSW,252,11.5,11.5,72,0.00,FEW,,0.00,902.0,WeatherDisplay:10.37,2013-06-06 10:43:00,
2013-06-06 12:48:00,70.1,61.0,30.05,WNW,286,9.0,9.0,73,0.00,FEW,,0.00,904.0,WeatherDisplay:10.37,2013-06-06 10:48:00,
2013-06-06 12:53:00,70.8,61.3,30.05,SW,232,12.0,12.0,72,0.00,FEW,,0.00,905.0,WeatherDisplay:10.37,2013-06-06 10:53:00,
2013-06-06 12:58:00,70.3,60.4,30.05,SSW,209,9.2,9.2,71,0.00,FEW,,0.00,909.0,WeatherDisplay:10.37,2013-06-06 10:58:00,
2013-06-06 13:03:00,70.5,61.0,30.05,West,259,5.8,5.8,72,0.00,FEW,,0.00,911.0,WeatherDisplay:10.37,2013-06-06 11:03:00,
2013-06-06 13:08:00,71.3,61.4,30.05,WSW,250,10.0,10.0,71,0.00,FEW,,0.00,909.0,WeatherDisplay:10.37,2013-06-06 11:08:00,
2013-06-06 13:13:00,70.8,60.5,30.05,WSW,241,12.7,12.7,70,0.00,FEW,,0.00,905.0,WeatherDisplay:10.37,2013-06-06 11:13:00,
2013-06-06 13:18:00,70.6,60.7,30.05,SW,219,14.0,14.0,71,0.00,FEW,,0.00,788.0,WeatherDisplay:10.37,2013-06-06 11:18:00,
2013-06-06 13:23:00,69.8,60.8,30.05,West,261,10.4,10.4,73,0.00,FEW,,0.00,942.0,WeatherDisplay:10.37,2013-06-06 11:23:00,
2013-06-06 13:28:00,70.2,61.5,30.05,WNW,288,9.2,9.2,74,0.00,FEW,,0.00,1037.0,WeatherDisplay:10.37,2013-06-06 11:28:00,
2013-06-06 13:33:00,70.6,61.5,30.05,West,261,9.2,9.2,73,0.00,FEW,,0.00,933.0,WeatherDisplay:10.37,2013-06-06 11:33:00,
2013-06-06 13:38:00,70.8,60.9,30.04,WNW,300,8.1,8.1,71,0.00,FEW,,0.00,904.0,WeatherDisplay:10.37,2013-06-06 11:38:00,
2013-06-06 13:43:00,71.5,62.0,30.04,SSW,210,9.2,9.2,72,0.00,FEW,,0.00,918.0,WeatherDisplay:10.37,2013-06-06 11:43:00,
2013-06-06 13:48:00,71.6,61.7,30.04,WNW,296,10.4,10.4,71,0.00,FEW,,0.00,954.0,WeatherDisplay:10.37,2013-06-06 11:48:00,
2013-06-06 13:53:00,71.6,61.3,30.04,West,265,11.5,11.5,70,0.00,FEW,,0.00,896.0,WeatherDisplay:10.37,2013-06-06 11:53:00,
2013-06-06 13:58:00,71.4,61.5,30.04,WNW,301,8.1,8.1,71,0.00,FEW,,0.00,886.0,WeatherDisplay:10.37,2013-06-06 11:58:00,
2013-06-06 14:03:00,71.3,61.4,30.04,WSW,252,11.5,11.5,71,0.00,FEW,,0.00,889.0,WeatherDisplay:10.37,2013-06-06 12:03:00,
2013-06-06 14:08:00,71.0,60.7,30.04,WSW,240,10.4,10.4,70,0.00,FEW,,0.00,884.0,WeatherDisplay:10.37,2013-06-06 12:08:00,
2013-06-06 14:13:00,70.5,61.0,30.04,SW,217,12.7,12.7,72,0.00,FEW,,0.00,875.0,WeatherDisplay:10.37,2013-06-06 12:13:00,
2013-06-06 14:18:00,70.8,61.3,30.04,WSW,249,11.5,11.5,72,0.00,FEW,,0.00,875.0,WeatherDisplay:10.37,2013-06-06 12:18:00,
2013-06-06 14:23:00,70.1,61.0,30.04,North,9,13.8,13.8,73,0.00,FEW,,0.00,865.0,WeatherDisplay:10.37,2013-06-06 12:23:00,
2013-06-06 14:28:00,69.9,60.8,30.04,WSW,245,13.8,13.8,73,0.00,FEW,,0.00,856.0,WeatherDisplay:10.37,2013-06-06 12:28:00,
2013-06-06 14:33:00,70.3,61.6,30.04,SW,231,13.0,13.0,74,0.00,FEW,,0.00,849.0,WeatherDisplay:10.37,2013-06-06 12:33:00,
2013-06-06 14:38:00,69.7,60.7,30.04,West,261,11.5,11.5,73,0.00,FEW,,0.00,838.0,WeatherDisplay:10.37,2013-06-06 12:38:00,
2013-06-06 14:43:00,69.5,60.1,30.03,SW,228,11.5,11.5,72,0.00,SCT,,0.00,831.0,WeatherDisplay:10.37,2013-06-06 12:43:00,
2013-06-06 14:48:00,70.2,61.1,30.03,West,261,13.0,13.0,73,0.00,SCT,,0.00,831.0,WeatherDisplay:10.37,2013-06-06 12:48:00,
2013-06-06 14:53:00,70.8,60.9,30.03,WSW,245,11.0,11.0,71,0.00,SCT,,0.00,826.0,WeatherDisplay:10.37,2013-06-06 12:53:00,
2013-06-06 14:58:00,70.8,60.9,30.03,NNW,346,11.5,11.5,71,0.00,SCT,,0.00,814.0,WeatherDisplay:10.37,2013-06-06 12:58:00,
2013-06-06 15:03:00,71.1,60.8,30.03,SSW,211,13.8,13.8,70,0.00,SCT,,0.00,809.0,WeatherDisplay:10.37,2013-06-06 13:03:00,
2013-06-06 15:08:00,70.8,60.9,30.03,WSW,241,12.7,12.7,71,0.00,SCT,,0.00,810.0,WeatherDisplay:10.37,2013-06-06 13:08:00,
2013-06-06 15:13:00,70.3,60.1,30.03,West,264,12.0,12.0,70,0.00,SCT,,0.00,803.0,WeatherDisplay:10.37,2013-06-06 13:13:00,
2013-06-06 15:18:00,70.5,60.2,30.03,West,269,12.7,12.7,70,0.00,SCT,,0.00,786.0,WeatherDisplay:10.37,2013-06-06 13:18:00,
2013-06-06 15:23:00,70.8,60.9,30.03,West,262,14.0,14.0,71,0.00,SCT,,0.00,773.0,WeatherDisplay:10.37,2013-06-06 13:23:00,
2013-06-06 15:28:00,71.0,61.5,30.03,West,264,11.0,11.0,72,0.00,SCT,,0.00,761.0,WeatherDisplay:10.37,2013-06-06 13:28:00,
2013-06-06 15:33:00,71.5,61.6,30.03,WSW,248,12.7,12.7,71,0.00,SCT,,0.00,756.0,WeatherDisplay:10.37,2013-06-06 13:33:00,
2013-06-06 15:38:00,71.3,61.0,30.02,West,275,11.5,11.5,70,0.00,SCT,,0.00,745.0,WeatherDisplay:10.37,2013-06-06 13:38:00,
2013-06-06 15:43:00,71.4,60.3,30.02,WSW,252,12.7,12.7,68,0.00,SCT,,0.00,733.0,WeatherDisplay:10.37,2013-06-06 13:43:00,
2013-06-06 15:48:00,70.9,59.8,30.02,WSW,250,15.0,15.0,68,0.00,SCT,,0.00,719.0,WeatherDisplay:10.37,2013-06-06 13:48:00,
2013-06-06 15:53:00,71.5,61.2,30.02,WSW,246,11.5,11.5,70,0.00,SCT,,0.00,705.0,WeatherDisplay:10.37,2013-06-06 13:53:00,
2013-06-06 15:58:00,71.8,61.5,30.02,West,259,11.5,11.5,70,0.00,SCT,,0.00,698.0,WeatherDisplay:10.37,2013-06-06 13:58:00,
2013-06-06 16:03:00,70.8,60.5,30.02,SSW,202,16.1,16.1,70,0.00,SCT,,0.00,686.0,WeatherDisplay:10.37,2013-06-06 14:03:00,
2013-06-06 16:08:00,70.8,59.7,30.02,WSW,250,12.7,12.7,68,0.00,SCT,,0.00,675.0,WeatherDisplay:10.37,2013-06-06 14:08:00,
2013-06-06 16:13:00,71.0,59.5,30.02,West,277,13.8,13.8,67,0.00,SCT,,0.00,657.0,WeatherDisplay:10.37,2013-06-06 14:13:00,
2013-06-06 16:18:00,71.2,59.7,30.01,WSW,251,12.0,12.0,67,0.00,SCT,,0.00,650.0,WeatherDisplay:10.37,2013-06-06 14:18:00,
2013-06-06 16:23:00,70.4,60.1,30.01,West,264,12.7,12.7,70,0.00,SCT,,0.00,636.0,WeatherDisplay:10.37,2013-06-06 14:23:00,
2013-06-06 16:28:00,70.3,60.1,30.01,West,265,12.0,12.0,70,0.00,SCT,,0.00,624.0,WeatherDisplay:10.37,2013-06-06 14:28:00,
2013-06-06 16:33:00,71.0,61.1,30.01,West,274,11.5,11.5,71,0.00,SCT,,0.00,613.0,WeatherDisplay:10.37,2013-06-06 14:33:00,
2013-06-06 16:38:00,70.8,60.5,30.00,NNW,327,11.5,11.5,70,0.00,SCT,,0.00,601.0,WeatherDisplay:10.37,2013-06-06 14:38:00,
2013-06-06 16:43:00,71.2,61.3,30.00,WSW,245,11.5,11.5,71,0.00,FEW,,0.00,585.0,WeatherDisplay:10.37,2013-06-06 14:43:00,
2013-06-06 16:48:00,71.7,61.0,30.00,WSW,237,11.5,11.5,69,0.00,FEW,,0.00,571.0,WeatherDisplay:10.37,2013-06-06 14:48:00,
2013-06-06 16:53:00,71.7,60.6,30.00,North,349,9.2,9.2,68,0.00,FEW,,0.00,557.0,WeatherDisplay:10.37,2013-06-06 14:53:00,
2013-06-06 16:58:00,71.7,60.6,30.01,SSW,210,12.7,12.7,68,0.00,FEW,,0.00,541.0,WeatherDisplay:10.37,2013-06-06 14:58:00,
2013-06-06 17:03:00,71.2,60.9,30.01,WSW,250,11.0,11.0,70,0.00,FEW,,0.00,527.0,WeatherDisplay:10.37,2013-06-06 15:03:00,
2013-06-06 17:08:00,69.8,61.1,30.01,West,276,12.7,12.7,74,0.00,FEW,,0.00,515.0,WeatherDisplay:10.37,2013-06-06 15:08:00,
2013-06-06 17:13:00,69.3,61.0,30.01,WNW,293,13.8,13.8,75,0.00,FEW,,0.00,499.0,WeatherDisplay:10.37,2013-06-06 15:13:00,
2013-06-06 17:18:00,69.9,62.4,30.01,WSW,240,12.7,12.7,77,0.00,FEW,,0.00,487.0,WeatherDisplay:10.37,2013-06-06 15:18:00,
2013-06-06 17:23:00,70.3,62.4,30.00,West,271,11.5,11.5,76,0.00,FEW,,0.00,476.0,WeatherDisplay:10.37,2013-06-06 15:23:00,
2013-06-06 17:28:00,70.0,62.1,30.00,WSW,246,13.8,13.8,76,0.00,FEW,,0.00,466.0,WeatherDisplay:10.37,2013-06-06 15:28:00,
2013-06-06 17:33:00,70.2,62.3,30.01,West,274,13.8,13.8,76,0.00,FEW,,0.00,457.0,WeatherDisplay:10.37,2013-06-06 15:33:00,
2013-06-06 17:38:00,70.3,62.4,30.00,WNW,301,11.5,11.5,76,0.00,FEW,,0.00,438.0,WeatherDisplay:10.37,2013-06-06 15:38:00,
2013-06-06 17:43:00,70.2,61.9,30.00,WNW,296,11.5,11.5,75,0.00,FEW,,0.00,425.0,WeatherDisplay:10.37,2013-06-06 15:43:00,
2013-06-06 17:48:00,70.6,62.3,30.00,NW,318,9.2,9.2,75,0.00,FEW,,0.00,413.0,WeatherDisplay:10.37,2013-06-06 15:48:00,
2013-06-06 17:53:00,70.9,62.2,30.00,West,272,9.2,9.2,74,0.00,FEW,,0.00,394.0,WeatherDisplay:10.37,2013-06-06 15:53:00,
2013-06-06 17:58:00,71.2,62.1,30.00,West,270,10.0,10.0,73,0.00,FEW,,0.00,380.0,WeatherDisplay:10.37,2013-06-06 15:58:00,
2013-06-06 18:03:00,71.4,62.3,30.00,West,280,8.1,8.1,73,0.00,FEW,,0.00,364.0,WeatherDisplay:10.37,2013-06-06 16:03:00,
2013-06-06 18:08:00,71.6,62.1,30.00,NW,313,9.2,9.2,72,0.00,FEW,,0.00,350.0,WeatherDisplay:10.37,2013-06-06 16:08:00,
2013-06-06 18:13:00,71.6,61.7,30.00,West,263,8.1,8.1,71,0.00,FEW,,0.00,338.0,WeatherDisplay:10.37,2013-06-06 16:13:00,
2013-06-06 18:18:00,71.6,60.9,29.99,WNW,296,8.1,8.1,69,0.00,FEW,,0.00,316.0,WeatherDisplay:10.37,2013-06-06 16:18:00,
2013-06-06 18:23:00,71.3,61.8,30.00,WSW,242,9.2,9.2,72,0.00,FEW,,0.00,302.0,WeatherDisplay:10.37,2013-06-06 16:23:00,
2013-06-06 18:28:00,71.1,62.0,30.00,WNW,288,11.5,11.5,73,0.00,FEW,,0.00,281.0,WeatherDisplay:10.37,2013-06-06 16:28:00,
2013-06-06 18:33:00,70.7,62.0,30.00,West,261,11.5,11.5,74,0.00,FEW,,0.00,267.0,WeatherDisplay:10.37,2013-06-06 16:33:00,
2013-06-06 18:38:00,70.5,62.2,30.00,West,277,8.1,8.1,75,0.00,FEW,,0.00,248.0,WeatherDisplay:10.37,2013-06-06 16:38:00,
2013-06-06 18:43:00,70.5,62.2,30.00,West,269,8.0,8.0,75,0.00,FEW,,0.00,237.0,WeatherDisplay:10.37,2013-06-06 16:43:00,
2013-06-06 18:48:00,70.5,62.6,30.00,WSW,257,6.9,6.9,76,0.00,FEW,,0.00,225.0,WeatherDisplay:10.37,2013-06-06 16:48:00,
2013-06-06 18:53:00,70.7,62.8,30.00,West,267,10.4,10.4,76,0.00,FEW,,0.00,213.0,WeatherDisplay:10.37,2013-06-06 16:53:00,
2013-06-06 18:58:00,70.5,62.6,30.00,SW,229,10.4,10.4,76,0.00,FEW,,0.00,195.0,WeatherDisplay:10.37,2013-06-06 16:58:00,
2013-06-06 19:03:00,70.3,62.7,30.00,West,267,11.5,11.5,77,0.00,FEW,,0.00,181.0,WeatherDisplay:10.37,2013-06-06 17:03:00,
2013-06-06 19:08:00,69.8,62.3,30.01,West,271,9.2,9.2,77,0.00,FEW,,0.00,165.0,WeatherDisplay:10.37,2013-06-06 17:08:00,
2013-06-06 19:13:00,69.4,62.2,30.01,West,271,9.2,9.2,78,0.00,FEW,,0.00,153.0,WeatherDisplay:10.37,2013-06-06 17:13:00,
2013-06-06 19:19:00,69.2,62.0,30.01,WSW,257,6.9,6.9,78,0.00,FEW,,0.00,141.0,WeatherDisplay:10.37,2013-06-06 17:19:00,
2013-06-06 19:24:00,69.3,62.5,30.01,West,267,6.0,6.0,79,0.00,FEW,,0.00,127.0,WeatherDisplay:10.37,2013-06-06 17:24:00,
2013-06-06 19:29:00,69.5,62.3,30.01,WSW,244,3.5,3.5,78,0.00,FEW,,0.00,113.0,WeatherDisplay:10.37,2013-06-06 17:29:00,
2013-06-06 19:34:00,69.7,61.8,30.01,SW,234,6.9,6.9,76,0.00,FEW,,0.00,98.0,WeatherDisplay:10.37,2013-06-06 17:34:00,
2013-06-06 19:39:00,69.6,62.1,30.00,WSW,247,5.0,5.0,77,0.00,FEW,,0.00,86.0,WeatherDisplay:10.37,2013-06-06 17:39:00,
2013-06-06 19:44:00,69.7,62.2,30.00,West,269,4.6,4.6,77,0.00,FEW,,0.00,72.0,WeatherDisplay:10.37,2013-06-06 17:44:00,
2013-06-06 19:49:00,69.8,61.9,30.00,WNW,292,3.5,3.5,76,0.00,FEW,,0.00,58.0,WeatherDisplay:10.37,2013-06-06 17:49:00,
2013-06-06 19:54:00,70.1,62.6,30.00,SSW,202,3.0,3.0,77,0.00,FEW,,0.00,49.0,WeatherDisplay:10.37,2013-06-06 17:54:00,
2013-06-06 19:59:00,70.0,62.8,30.00,SW,227,4.6,4.6,78,0.00,FEW,,0.00,39.0,WeatherDisplay:10.37,2013-06-06 17:59:00,
2013-06-06 20:04:00,69.7,62.9,30.00,South,184,2.3,2.3,79,0.00,FEW,,0.00,28.0,WeatherDisplay:10.37,2013-06-06 18:04:00,
2013-06-06 20:09:00,69.3,62.9,30.00,South,184,3.5,3.5,80,0.00,FEW,,0.00,21.0,WeatherDisplay:10.37,2013-06-06 18:09:00,
2013-06-06 20:14:00,69.0,62.9,30.00,South,170,3.5,3.5,81,0.00,FEW,,0.00,16.0,WeatherDisplay:10.37,2013-06-06 18:14:00,
2013-06-06 20:19:00,68.7,63.0,30.00,South,172,3.5,3.5,82,0.00,FEW,,0.00,12.0,WeatherDisplay:10.37,2013-06-06 18:19:00,
2013-06-06 20:24:00,68.3,62.9,30.00,South,187,3.5,3.5,83,0.00,FEW,,0.00,7.0,WeatherDisplay:10.37,2013-06-06 18:24:00,
2013-06-06 20:29:00,68.2,62.8,30.00,SW,218,4.0,4.0,83,0.00,FEW,,0.00,5.0,WeatherDisplay:10.37,2013-06-06 18:29:00,
2013-06-06 20:34:00,68.1,63.1,30.00,South,176,3.5,3.5,84,0.00,FEW,,0.00,0.0,WeatherDisplay:10.37,2013-06-06 18:34:00,
2013-06-06 20:39:00,68.0,63.0,30.00,SSW,194,3.5,3.5,84,0.00,FEW,,0.00,0.0,WeatherDisplay:10.37,2013-06-06 18:39:00,
2013-06-06 20:44:00,67.8,62.8,30.00,SSW,203,0.0,0.0,84,0.00,,,0.00,0.0,WeatherDisplay:10.37,2013-06-06 18:44:00,
2013-06-06 20:49:00,67.8,62.8,30.00,SSW,210,2.3,2.3,84,0.00,,,0.00,0.0,WeatherDisplay:10.37,2013-06-06 18:49:00,
2013-06-06 20:54:00,67.6,61.9,30.00,SW,236,0.0,0.0,82,0.00,,,0.00,0.0,WeatherDisplay:10.37,2013-06-06 18:54:00,
2013-06-06 20:59:00,67.7,62.3,30.00,WSW,258,1.2,1.2,83,0.00,,,0.00,0.0,WeatherDisplay:10.37,2013-06-06 18:59:00,
2013-06-06 21:04:00,68.0,62.6,30.00,North,355,2.3,2.3,83,0.00,,,0.00,0.0,WeatherDisplay:10.37,2013-06-06 19:04:00,
2013-06-06 21:09:00,68.2,62.8,30.00,North,355,3.5,3.5,83,0.00,,,0.00,0.0,WeatherDisplay:10.37,2013-06-06 19:09:00,
2013-06-06 21:14:00,68.1,62.7,30.00,NE,35,3.5,3.5,83,0.00,,,0.00,0.0,WeatherDisplay:10.37,2013-06-06 19:14:00,
2013-06-06 21:19:00,68.3,62.9,30.01,NE,36,3.5,3.5,83,0.00,,,0.00,0.0,WeatherDisplay:10.37,2013-06-06 19:19:00,
2013-06-06 21:24:00,68.1,62.7,30.00,North,11,3.5,3.5,83,0.00,,,0.00,0.0,WeatherDisplay:10.37,2013-06-06 19:24:00,
2013-06-06 21:29:00,68.0,62.3,30.01,NNE,23,3.0,3.0,82,0.00,,,0.00,0.0,WeatherDisplay:10.37,2013-06-06 19:29:00,
2013-06-06 21:34:00,67.9,61.9,30.01,North,11,3.5,3.5,81,0.00,,,0.00,0.0,WeatherDisplay:10.37,2013-06-06 19:34:00,
2013-06-06 21:39:00,68.1,61.7,30.01,NNE,21,5.0,5.0,80,0.00,,,0.00,0.0,WeatherDisplay:10.37,2013-06-06 19:39:00,
2013-06-06 21:44:00,68.2,61.1,30.01,NNE,13,3.5,3.5,78,0.00,,,0.00,0.0,WeatherDisplay:10.37,2013-06-06 19:44:00,
2013-06-06 21:49:00,68.4,61.6,30.01,NNW,347,0.0,0.0,79,0.00,,,0.00,0.0,WeatherDisplay:10.37,2013-06-06 19:49:00,
2013-06-06 21:55:00,68.5,61.4,30.01,NW,317,1.2,0.0,78,0.00,,,0.00,0.0,WeatherDisplay:10.37,2013-06-06 19:55:00,
2013-06-06 22:00:00,68.5,61.4,30.01,NE,34,0.0,0.0,78,0.00,,,0.00,0.0,WeatherDisplay:10.37,2013-06-06 20:00:00,
2013-06-06 22:05:00,68.4,61.3,30.01,ENE,74,2.0,2.0,78,0.00,,,0.00,0.0,WeatherDisplay:10.37,2013-06-06 20:05:00,
2013-06-06 22:10:00,68.4,61.6,30.01,SW,236,1.2,1.2,79,0.00,,,0.00,0.0,WeatherDisplay:10.37,2013-06-06 20:10:00,
2013-06-06 22:15:00,68.2,61.4,30.01,East,100,0.0,0.0,79,0.00,,,0.00,0.0,WeatherDisplay:10.37,2013-06-06 20:15:00,
2013-06-06 22:20:00,67.9,61.1,30.01,SSW,212,1.2,1.2,79,0.00,,,0.00,0.0,WeatherDisplay:10.37,2013-06-06 20:20:00,
2013-06-06 22:25:00,67.7,61.0,30.01,NE,38,0.0,0.1,79,0.00,,,0.00,0.0,WeatherDisplay:10.37,2013-06-06 20:25:00,
2013-06-06 22:30:00,67.6,61.2,30.01,North,5,0.0,0.0,80,0.00,,,0.00,0.0,WeatherDisplay:10.37,2013-06-06 20:30:00,
2013-06-06 22:35:00,67.5,61.1,30.01,NNW,344,1.2,1.2,80,0.00,,,0.00,0.0,WeatherDisplay:10.37,2013-06-06 20:35:00,
2013-06-06 22:40:00,67.4,61.4,30.01,North,355,3.5,3.5,81,0.00,,,0.00,0.0,WeatherDisplay:10.37,2013-06-06 20:40:00,
2013-06-06 22:45:00,67.3,61.3,30.01,ENE,62,3.5,3.5,81,0.00,,,0.00,0.0,WeatherDisplay:10.37,2013-06-06 20:45:00,
2013-06-06 22:50:00,67.1,61.1,30.01,NNE,27,2.3,2.3,81,0.00,,,0.00,0.0,WeatherDisplay:10.37,2013-06-06 20:50:00,
2013-06-06 22:55:00,67.0,61.0,30.01,ESE,105,2.3,2.3,81,0.00,,,0.00,0.0,WeatherDisplay:10.37,2013-06-06 20:55:00,
2013-06-06 23:00:00,66.9,60.9,30.01,WSW,253,2.3,0.0,81,0.00,,,0.00,0.0,WeatherDisplay:10.37,2013-06-06 21:00:00,
2013-06-06 23:05:00,66.8,60.8,30.01,ENE,73,2.3,2.3,81,0.00,,,0.00,0.0,WeatherDisplay:10.37,2013-06-06 21:05:00,
2013-06-06 23:10:00,67.0,61.0,30.00,East,98,6.9,6.9,81,0.00,,,0.00,0.0,WeatherDisplay:10.37,2013-06-06 21:10:00,
2013-06-06 23:15:00,67.3,60.9,30.01,NW,317,3.5,3.5,80,0.00,,,0.00,0.0,WeatherDisplay:10.37,2013-06-06 21:15:00,
2013-06-06 23:20:00,67.3,60.6,30.00,NNE,17,2.3,2.3,79,0.00,,,0.00,0.0,WeatherDisplay:10.37,2013-06-06 21:20:00,
2013-06-06 23:25:00,67.3,60.6,30.00,SSW,207,2.3,2.3,79,0.00,,,0.00,0.0,WeatherDisplay:10.37,2013-06-06 21:25:00,
2013-06-06 23:30:00,67.4,60.3,30.00,NE,34,4.6,4.6,78,0.00,,,0.00,0.0,WeatherDisplay:10.37,2013-06-06 21:30:00,
2013-06-06 23:35:00,67.6,60.5,30.00,South,175,4.6,4.6,78,0.00,,,0.00,0.0,WeatherDisplay:10.37,2013-06-06 21:35:00,
2013-06-06 23:40:00,67.9,60.1,30.00,ESE,117,6.9,6.9,76,0.00,,,0.00,0.0,WeatherDisplay:10.37,2013-06-06 21:40:00,
2013-06-06 23:45:00,68.1,59.9,30.00,East,79,5.8,5.8,75,0.00,,,0.00,0.0,WeatherDisplay:10.37,2013-06-06 21:45:00,
2013-06-06 23:50:00,68.3,59.3,30.00,ENE,64,10.4,10.4,73,0.00,,,0.00,0.0,WeatherDisplay:10.37,2013-06-06 21:50:00,
2013-06-06 23:55:00,68.4,59.0,30.00,East,91,8.1,8.1,72,0.00,,,0.00,0.0,WeatherDisplay:10.37,2013-06-06 21:55:00,